San Jose, Costa Rica

5:57 PM CST on September 23, 2014 (GMT -0600)
Pozos de Santa Ana | Change Station
CLOSE
Current Station
Personal Weather Station
Location: San Josť, SAN JOSť
Elevation: 2825 ft
Nearby Weather Stations

Elev 2825 ft 9.96 °N, 84.19 °W | Updated 44 seconds ago

Mostly Cloudy
Mostly Cloudy
72.1 °F
Feels Like 72.1 °F
N
0.7
Wind Variable Wind from SE
Gusts 2.2 mph

Today
High -- | Low -- °F
--% Chance of Precip.
Yesterday
High -- | Low -- °F
Precip. -- in
5:26 AM 5:32 PM
Waning Crescent, 0% visible
Pressure 29.97 in
Visibility 6.2 miles
Clouds Few 1000 ft
Scattered Clouds 4500 ft
Mostly Cloudy 10000 ft
Dew Point 69 °F
Humidity 90%
Rainfall 0.02 in
Snow Depth Not available.
UV 0 out of 12
Pollen Not available.
Air Quality Not available.
Flu Activity Not available.
METAR MROC 240000Z 31006KT 9999 FEW010 SCT045 BKN100 20/19 A2997 NOSIG

More Conditions Fewer Conditions

Pressure 29.97 in
Visibility 6.2 miles
Clouds Few 1000 ft
Scattered Clouds 4500 ft
Mostly Cloudy 10000 ft
Dew Point 69 °F
Humidity 90%
Rainfall 0.02 in
Snow Depth Not available.
UV 0 out of 12
Pollen Not available.
Air Quality Not available.
Flu Activity Not available.
METAR MROC 240000Z 31006KT 9999 FEW010 SCT045 BKN100 20/19 A2997 NOSIG

More Conditions Fewer Conditions

10-Day Weather Forecast

Almanac

Astronomy

Sep. 23, 2014 Rise Set
Actual Time 5:26 AM CST 5:32 PM CST
Civil Twilight 5:05 AM CST 5:53 PM CST
Nautical Twilight 4:40 AM CST 6:17 PM CST
Astronomical Twilight 4:16 AM CST 6:41 PM CST
Moon 4:51 AM CST 5:13 PM CST
Length of Visible Light 12h 48m
Length of Day
12h 06m
Tomorrow will be 0m 33s shorter.
Waning Crescent, 0% of the Moon is Illuminated
Today
Waning Crescent
Sep 24
New
Oct 1
First Quarter
Oct 8
Full
Oct 15
Last Quarter

Today's Extremes

Country Highs Country Lows

Community

WunderPhotos

Upload Photos

1,755,821 photos uploaded!

WunderBlogs® & News

Nearby

Snow Depth

Not available.

Earthquake Activity

City Distance Mag. Time & Date
No recent earthquake activity has been reported nearby.
Minimum magnitude displayed is 2.5.

Coastal Water Temperatures

Place Temperature
No Stations Reporting

Nearby Weather Stations